sensor_id;sensor_type;location;lat;lon;timestamp;P1;durP1;ratioP1;P2;durP2;ratioP2
2396;SDS011;1209;48.410;9.054;2022-12-07T00:01:33;4.03;;;3.60;;
2396;SDS011;1209;48.410;9.054;2022-12-07T00:04:00;4.25;;;3.83;;
2396;SDS011;1209;48.410;9.054;2022-12-07T00:06:51;5.95;;;4.57;;
2396;SDS011;1209;48.410;9.054;2022-12-07T00:09:17;5.88;;;3.63;;
2396;SDS011;1209;48.410;9.054;2022-12-07T00:11:42;3.83;;;3.53;;
2396;SDS011;1209;48.410;9.054;2022-12-07T00:14:13;7.57;;;5.03;;
2396;SDS011;1209;48.410;9.054;2022-12-07T00:16:40;5.28;;;4.40;;
2396;SDS011;1209;48.410;9.054;2022-12-07T00:19:07;7.50;;;4.03;;
2396;SDS011;1209;48.410;9.054;2022-12-07T00:21:33;4.47;;;3.53;;
2396;SDS011;1209;48.410;9.054;2022-12-07T00:24:00;4.43;;;3.53;;
2396;SDS011;1209;48.410;9.054;2022-12-07T00:26:27;4.20;;;3.80;;
2396;SDS011;1209;48.410;9.054;2022-12-07T00:28:55;5.40;;;4.10;;
2396;SDS011;1209;48.410;9.054;2022-12-07T00:31:23;5.53;;;4.07;;
2396;SDS011;1209;48.410;9.054;2022-12-07T00:33:50;5.00;;;3.95;;
2396;SDS011;1209;48.410;9.054;2022-12-07T00:36:23;4.92;;;3.92;;
2396;SDS011;1209;48.410;9.054;2022-12-07T00:38:48;4.43;;;4.03;;
2396;SDS011;1209;48.410;9.054;2022-12-07T00:41:15;4.77;;;4.33;;
2396;SDS011;1209;48.410;9.054;2022-12-07T00:43:42;5.07;;;4.10;;
2396;SDS011;1209;48.410;9.054;2022-12-07T00:46:09;4.50;;;4.10;;
2396;SDS011;1209;48.410;9.054;2022-12-07T00:48:36;5.67;;;4.03;;
2396;SDS011;1209;48.410;9.054;2022-12-07T00:51:02;5.30;;;4.00;;
2396;SDS011;1209;48.410;9.054;2022-12-07T00:53:28;5.53;;;4.45;;
2396;SDS011;1209;48.410;9.054;2022-12-07T00:55:54;5.63;;;3.60;;
2396;SDS011;1209;48.410;9.054;2022-12-07T00:58:23;6.82;;;4.10;;
2396;SDS011;1209;48.410;9.054;2022-12-07T01:00:48;4.73;;;3.67;;
2396;SDS011;1209;48.410;9.054;2022-12-07T01:03:14;4.93;;;3.57;;
2396;SDS011;1209;48.410;9.054;2022-12-07T01:05:40;5.65;;;4.03;;
2396;SDS011;1209;48.410;9.054;2022-12-07T01:08:14;5.70;;;4.18;;
2396;SDS011;1209;48.410;9.054;2022-12-07T01:10:39;5.37;;;4.67;;
2396;SDS011;1209;48.410;9.054;2022-12-07T01:13:05;5.10;;;3.80;;
2396;SDS011;1209;48.410;9.054;2022-12-07T01:15:30;5.90;;;4.27;;
2396;SDS011;1209;48.410;9.054;2022-12-07T01:17:55;6.80;;;4.00;;
2396;SDS011;1209;48.410;9.054;2022-12-07T01:20:21;4.37;;;3.97;;
2396;SDS011;1209;48.410;9.054;2022-12-07T01:22:46;4.93;;;3.60;;
2396;SDS011;1209;48.410;9.054;2022-12-07T01:25:12;5.50;;;3.53;;
2396;SDS011;1209;48.410;9.054;2022-12-07T01:27:37;6.90;;;3.87;;
2396;SDS011;1209;48.410;9.054;2022-12-07T01:30:04;5.43;;;4.00;;
2396;SDS011;1209;48.410;9.054;2022-12-07T01:32:31;6.28;;;4.28;;
2396;SDS011;1209;48.410;9.054;2022-12-07T01:34:57;3.03;;;2.80;;
2396;SDS011;1209;48.410;9.054;2022-12-07T01:37:22;4.80;;;3.80;;
2396;SDS011;1209;48.410;9.054;2022-12-07T01:39:48;4.43;;;3.67;;
2396;SDS011;1209;48.410;9.054;2022-12-07T01:42:15;8.15;;;4.28;;
2396;SDS011;1209;48.410;9.054;2022-12-07T01:47:43;9.38;;;4.43;;
2396;SDS011;1209;48.410;9.054;2022-12-07T01:50:12;5.53;;;4.32;;
2396;SDS011;1209;48.410;9.054;2022-12-07T01:52:38;6.47;;;3.92;;
2396;SDS011;1209;48.410;9.054;2022-12-07T01:55:06;4.10;;;3.40;;
2396;SDS011;1209;48.410;9.054;2022-12-07T01:57:34;15.90;;;4.15;;
2396;SDS011;1209;48.410;9.054;2022-12-07T02:00:04;6.50;;;4.32;;
2396;SDS011;1209;48.410;9.054;2022-12-07T02:02:33;6.38;;;4.28;;
2396;SDS011;1209;48.410;9.054;2022-12-07T02:05:02;5.88;;;4.45;;
2396;SDS011;1209;48.410;9.054;2022-12-07T02:07:29;5.18;;;4.10;;
2396;SDS011;1209;48.410;9.054;2022-12-07T02:09:56;5.45;;;3.38;;
2396;SDS011;1209;48.410;9.054;2022-12-07T02:12:21;4.27;;;3.80;;
2396;SDS011;1209;48.410;9.054;2022-12-07T02:14:49;4.63;;;4.18;;
2396;SDS011;1209;48.410;9.054;2022-12-07T02:17:25;6.63;;;4.10;;
2396;SDS011;1209;48.410;9.054;2022-12-07T02:23:38;6.57;;;4.32;;
2396;SDS011;1209;48.410;9.054;2022-12-07T02:37:39;6.55;;;3.38;;
2396;SDS011;1209;48.410;9.054;2022-12-07T02:40:27;5.70;;;3.58;;
2396;SDS011;1209;48.410;9.054;2022-12-07T02:42:56;4.00;;;3.30;;
2396;SDS011;1209;48.410;9.054;2022-12-07T02:45:28;4.45;;;3.67;;
2396;SDS011;1209;48.410;9.054;2022-12-07T02:47:56;6.25;;;4.05;;
2396;SDS011;1209;48.410;9.054;2022-12-07T02:50:25;5.28;;;4.28;;
2396;SDS011;1209;48.410;9.054;2022-12-07T02:52:51;6.80;;;4.50;;
2396;SDS011;1209;48.410;9.054;2022-12-07T02:55:17;9.03;;;4.20;;
2396;SDS011;1209;48.410;9.054;2022-12-07T02:57:59;4.28;;;3.85;;
2396;SDS011;1209;48.410;9.054;2022-12-07T03:00:34;8.32;;;4.57;;
2396;SDS011;1209;48.410;9.054;2022-12-07T03:03:10;5.10;;;4.57;;
2396;SDS011;1209;48.410;9.054;2022-12-07T03:08:36;10.15;;;4.63;;
2396;SDS011;1209;48.410;9.054;2022-12-07T03:11:09;6.10;;;3.63;;
2396;SDS011;1209;48.410;9.054;2022-12-07T03:16:26;6.90;;;3.95;;
2396;SDS011;1209;48.410;9.054;2022-12-07T03:19:03;7.32;;;3.17;;
2396;SDS011;1209;48.410;9.054;2022-12-07T03:21:57;4.55;;;3.40;;
2396;SDS011;1209;48.410;9.054;2022-12-07T03:24:24;4.50;;;3.80;;
2396;SDS011;1209;48.410;9.054;2022-12-07T03:26:56;4.25;;;3.85;;
2396;SDS011;1209;48.410;9.054;2022-12-07T03:29:31;6.07;;;4.63;;
2396;SDS011;1209;48.410;9.054;2022-12-07T03:32:03;5.50;;;4.75;;
2396;SDS011;1209;48.410;9.054;2022-12-07T03:34:38;4.70;;;3.70;;
2396;SDS011;1209;48.410;9.054;2022-12-07T03:37:40;6.95;;;4.10;;
2396;SDS011;1209;48.410;9.054;2022-12-07T03:42:50;5.70;;;4.80;;
2396;SDS011;1209;48.410;9.054;2022-12-07T03:45:17;7.40;;;4.15;;
2396;SDS011;1209;48.410;9.054;2022-12-07T03:52:55;7.20;;;4.45;;
2396;SDS011;1209;48.410;9.054;2022-12-07T03:57:50;6.90;;;4.83;;
2396;SDS011;1209;48.410;9.054;2022-12-07T04:00:19;6.20;;;4.18;;
2396;SDS011;1209;48.410;9.054;2022-12-07T04:02:45;10.57;;;5.63;;
2396;SDS011;1209;48.410;9.054;2022-12-07T04:05:11;5.50;;;4.27;;
2396;SDS011;1209;48.410;9.054;2022-12-07T04:07:37;7.13;;;4.43;;
2396;SDS011;1209;48.410;9.054;2022-12-07T04:10:02;4.57;;;3.67;;
2396;SDS011;1209;48.410;9.054;2022-12-07T04:12:28;7.55;;;3.70;;
2396;SDS011;1209;48.410;9.054;2022-12-07T04:14:53;7.10;;;4.07;;
2396;SDS011;1209;48.410;9.054;2022-12-07T04:17:19;3.67;;;3.27;;
2396;SDS011;1209;48.410;9.054;2022-12-07T04:19:44;8.47;;;4.40;;
2396;SDS011;1209;48.410;9.054;2022-12-07T04:22:09;10.40;;;6.50;;
2396;SDS011;1209;48.410;9.054;2022-12-07T04:24:35;6.23;;;5.30;;
2396;SDS011;1209;48.410;9.054;2022-12-07T04:27:00;3.23;;;2.93;;
2396;SDS011;1209;48.410;9.054;2022-12-07T04:29:26;6.10;;;3.67;;
2396;SDS011;1209;48.410;9.054;2022-12-07T04:31:51;6.37;;;3.70;;
2396;SDS011;1209;48.410;9.054;2022-12-07T04:34:17;4.85;;;3.70;;
2396;SDS011;1209;48.410;9.054;2022-12-07T04:36:44;4.53;;;3.65;;
2396;SDS011;1209;48.410;9.054;2022-12-07T04:39:17;5.75;;;3.88;;
2396;SDS011;1209;48.410;9.054;2022-12-07T04:41:43;9.70;;;4.93;;
2396;SDS011;1209;48.410;9.054;2022-12-07T04:44:09;7.80;;;4.37;;
2396;SDS011;1209;48.410;9.054;2022-12-07T04:46:34;8.77;;;5.23;;
2396;SDS011;1209;48.410;9.054;2022-12-07T04:49:00;5.70;;;4.00;;
2396;SDS011;1209;48.410;9.054;2022-12-07T04:51:26;7.50;;;5.23;;
2396;SDS011;1209;48.410;9.054;2022-12-07T04:53:53;8.68;;;5.70;;
2396;SDS011;1209;48.410;9.054;2022-12-07T04:56:19;6.95;;;5.68;;
2396;SDS011;1209;48.410;9.054;2022-12-07T04:58:45;9.53;;;5.43;;
2396;SDS011;1209;48.410;9.054;2022-12-07T05:01:12;7.63;;;5.45;;
2396;SDS011;1209;48.410;9.054;2022-12-07T05:03:38;8.55;;;5.78;;
2396;SDS011;1209;48.410;9.054;2022-12-07T05:06:04;7.55;;;5.30;;
2396;SDS011;1209;48.410;9.054;2022-12-07T05:08:30;10.80;;;6.30;;
2396;SDS011;1209;48.410;9.054;2022-12-07T05:10:57;9.80;;;4.88;;
2396;SDS011;1209;48.410;9.054;2022-12-07T05:13:22;7.80;;;5.40;;
2396;SDS011;1209;48.410;9.054;2022-12-07T05:15:47;4.83;;;4.30;;
2396;SDS011;1209;48.410;9.054;2022-12-07T05:18:13;7.10;;;4.47;;
2396;SDS011;1209;48.410;9.054;2022-12-07T05:20:39;7.00;;;5.23;;
2396;SDS011;1209;48.410;9.054;2022-12-07T05:23:05;7.00;;;4.90;;
2396;SDS011;1209;48.410;9.054;2022-12-07T05:25:31;5.27;;;4.07;;
2396;SDS011;1209;48.410;9.054;2022-12-07T05:27:56;6.50;;;4.77;;
2396;SDS011;1209;48.410;9.054;2022-12-07T05:30:22;9.43;;;5.20;;
2396;SDS011;1209;48.410;9.054;2022-12-07T05:32:48;6.82;;;5.00;;
2396;SDS011;1209;48.410;9.054;2022-12-07T05:35:14;8.60;;;5.30;;
2396;SDS011;1209;48.410;9.054;2022-12-07T05:37:39;6.50;;;4.93;;
2396;SDS011;1209;48.410;9.054;2022-12-07T05:40:05;7.23;;;4.60;;
2396;SDS011;1209;48.410;9.054;2022-12-07T05:42:31;5.00;;;4.50;;
2396;SDS011;1209;48.410;9.054;2022-12-07T05:44:56;5.03;;;3.63;;
2396;SDS011;1209;48.410;9.054;2022-12-07T05:47:21;6.00;;;4.23;;
2396;SDS011;1209;48.410;9.054;2022-12-07T05:49:47;5.00;;;3.93;;
2396;SDS011;1209;48.410;9.054;2022-12-07T05:52:12;7.27;;;4.80;;
2396;SDS011;1209;48.410;9.054;2022-12-07T05:54:38;7.30;;;4.40;;
2396;SDS011;1209;48.410;9.054;2022-12-07T05:57:03;5.97;;;4.23;;
2396;SDS011;1209;48.410;9.054;2022-12-07T05:59:28;5.93;;;4.10;;
2396;SDS011;1209;48.410;9.054;2022-12-07T06:04:24;6.95;;;3.97;;
2396;SDS011;1209;48.410;9.054;2022-12-07T06:06:52;5.15;;;4.60;;
2396;SDS011;1209;48.410;9.054;2022-12-07T06:09:18;6.00;;;5.10;;
2396;SDS011;1209;48.410;9.054;2022-12-07T06:11:44;6.05;;;4.32;;
2396;SDS011;1209;48.410;9.054;2022-12-07T06:14:33;7.57;;;5.00;;
2396;SDS011;1209;48.410;9.054;2022-12-07T06:16:58;7.43;;;4.80;;
2396;SDS011;1209;48.410;9.054;2022-12-07T06:19:24;7.00;;;4.70;;
2396;SDS011;1209;48.410;9.054;2022-12-07T06:21:49;5.23;;;4.17;;
2396;SDS011;1209;48.410;9.054;2022-12-07T06:24:15;5.40;;;4.07;;
2396;SDS011;1209;48.410;9.054;2022-12-07T06:26:41;9.15;;;6.20;;
2396;SDS011;1209;48.410;9.054;2022-12-07T06:29:07;9.80;;;5.93;;
2396;SDS011;1209;48.410;9.054;2022-12-07T06:31:33;6.65;;;4.55;;
2396;SDS011;1209;48.410;9.054;2022-12-07T06:33:59;9.10;;;5.80;;
2396;SDS011;1209;48.410;9.054;2022-12-07T06:36:25;7.50;;;5.72;;
2396;SDS011;1209;48.410;9.054;2022-12-07T06:38:51;12.15;;;8.02;;
2396;SDS011;1209;48.410;9.054;2022-12-07T06:41:17;16.70;;;8.37;;
2396;SDS011;1209;48.410;9.054;2022-12-07T06:43:42;15.03;;;8.57;;
2396;SDS011;1209;48.410;9.054;2022-12-07T06:46:07;12.37;;;6.00;;
2396;SDS011;1209;48.410;9.054;2022-12-07T06:48:33;10.90;;;6.10;;
2396;SDS011;1209;48.410;9.054;2022-12-07T06:50:58;10.37;;;5.90;;
2396;SDS011;1209;48.410;9.054;2022-12-07T06:53:23;10.57;;;5.90;;
2396;SDS011;1209;48.410;9.054;2022-12-07T06:55:49;14.30;;;6.47;;
2396;SDS011;1209;48.410;9.054;2022-12-07T06:58:14;11.70;;;6.43;;
2396;SDS011;1209;48.410;9.054;2022-12-07T07:00:40;11.93;;;6.60;;
2396;SDS011;1209;48.410;9.054;2022-12-07T07:03:05;12.80;;;5.97;;
2396;SDS011;1209;48.410;9.054;2022-12-07T07:05:31;10.57;;;6.60;;
2396;SDS011;1209;48.410;9.054;2022-12-07T07:07:56;12.40;;;7.77;;
2396;SDS011;1209;48.410;9.054;2022-12-07T07:10:21;6.13;;;5.47;;
2396;SDS011;1209;48.410;9.054;2022-12-07T07:12:47;10.37;;;6.30;;
2396;SDS011;1209;48.410;9.054;2022-12-07T07:15:13;9.68;;;5.18;;
2396;SDS011;1209;48.410;9.054;2022-12-07T07:17:38;9.23;;;5.43;;
2396;SDS011;1209;48.410;9.054;2022-12-07T07:20:04;8.67;;;4.90;;
2396;SDS011;1209;48.410;9.054;2022-12-07T07:22:30;10.40;;;6.93;;
2396;SDS011;1209;48.410;9.054;2022-12-07T07:24:55;10.80;;;5.87;;
2396;SDS011;1209;48.410;9.054;2022-12-07T07:27:21;5.97;;;4.00;;
2396;SDS011;1209;48.410;9.054;2022-12-07T07:29:46;6.37;;;4.07;;
2396;SDS011;1209;48.410;9.054;2022-12-07T07:32:11;6.40;;;3.77;;
2396;SDS011;1209;48.410;9.054;2022-12-07T07:34:37;3.97;;;3.60;;
2396;SDS011;1209;48.410;9.054;2022-12-07T07:37:02;7.70;;;3.90;;
2396;SDS011;1209;48.410;9.054;2022-12-07T07:39:28;10.17;;;4.93;;
2396;SDS011;1209;48.410;9.054;2022-12-07T07:41:53;7.13;;;4.73;;
2396;SDS011;1209;48.410;9.054;2022-12-07T07:44:19;8.00;;;4.67;;
2396;SDS011;1209;48.410;9.054;2022-12-07T07:46:44;9.57;;;4.80;;
2396;SDS011;1209;48.410;9.054;2022-12-07T07:49:10;9.33;;;4.20;;
2396;SDS011;1209;48.410;9.054;2022-12-07T07:51:35;9.57;;;6.05;;
2396;SDS011;1209;48.410;9.054;2022-12-07T07:54:01;17.10;;;6.20;;
2396;SDS011;1209;48.410;9.054;2022-12-07T07:56:27;10.17;;;6.17;;
2396;SDS011;1209;48.410;9.054;2022-12-07T07:58:52;9.20;;;4.97;;
2396;SDS011;1209;48.410;9.054;2022-12-07T08:01:18;6.83;;;5.57;;
2396;SDS011;1209;48.410;9.054;2022-12-07T08:03:44;7.40;;;5.63;;
2396;SDS011;1209;48.410;9.054;2022-12-07T08:06:11;11.25;;;6.22;;
2396;SDS011;1209;48.410;9.054;2022-12-07T08:08:36;6.20;;;5.10;;
2396;SDS011;1209;48.410;9.054;2022-12-07T08:11:04;10.43;;;5.87;;
2396;SDS011;1209;48.410;9.054;2022-12-07T08:13:30;5.72;;;4.53;;
2396;SDS011;1209;48.410;9.054;2022-12-07T08:15:56;5.50;;;4.00;;
2396;SDS011;1209;48.410;9.054;2022-12-07T08:18:21;8.13;;;4.77;;
2396;SDS011;1209;48.410;9.054;2022-12-07T08:20:46;5.17;;;4.37;;
2396;SDS011;1209;48.410;9.054;2022-12-07T08:23:12;7.50;;;5.13;;
2396;SDS011;1209;48.410;9.054;2022-12-07T08:25:37;7.93;;;5.43;;
2396;SDS011;1209;48.410;9.054;2022-12-07T08:28:03;6.93;;;4.70;;
2396;SDS011;1209;48.410;9.054;2022-12-07T08:30:29;8.30;;;4.80;;
2396;SDS011;1209;48.410;9.054;2022-12-07T08:32:55;11.70;;;5.25;;
2396;SDS011;1209;48.410;9.054;2022-12-07T08:35:21;6.47;;;5.03;;
2396;SDS011;1209;48.410;9.054;2022-12-07T08:37:47;7.10;;;5.67;;
2396;SDS011;1209;48.410;9.054;2022-12-07T08:40:13;11.45;;;5.70;;
2396;SDS011;1209;48.410;9.054;2022-12-07T08:42:44;8.52;;;5.28;;
2396;SDS011;1209;48.410;9.054;2022-12-07T08:45:13;6.85;;;5.05;;
2396;SDS011;1209;48.410;9.054;2022-12-07T08:47:48;5.82;;;4.03;;
2396;SDS011;1209;48.410;9.054;2022-12-07T08:50:17;6.05;;;4.82;;
2396;SDS011;1209;48.410;9.054;2022-12-07T08:52:42;7.63;;;5.37;;
2396;SDS011;1209;48.410;9.054;2022-12-07T08:55:11;6.13;;;4.23;;
2396;SDS011;1209;48.410;9.054;2022-12-07T08:57:37;8.02;;;6.72;;
2396;SDS011;1209;48.410;9.054;2022-12-07T09:00:04;10.75;;;6.50;;
2396;SDS011;1209;48.410;9.054;2022-12-07T09:02:31;9.88;;;6.05;;
2396;SDS011;1209;48.410;9.054;2022-12-07T09:04:57;8.55;;;5.30;;
2396;SDS011;1209;48.410;9.054;2022-12-07T09:07:22;4.90;;;4.40;;
2396;SDS011;1209;48.410;9.054;2022-12-07T09:09:47;10.00;;;5.97;;
2396;SDS011;1209;48.410;9.054;2022-12-07T09:12:13;6.93;;;5.00;;
2396;SDS011;1209;48.410;9.054;2022-12-07T09:14:38;10.63;;;5.17;;
2396;SDS011;1209;48.410;9.054;2022-12-07T09:17:12;7.17;;;4.87;;
2396;SDS011;1209;48.410;9.054;2022-12-07T09:19:38;7.20;;;4.13;;
2396;SDS011;1209;48.410;9.054;2022-12-07T09:22:04;5.27;;;4.77;;
2396;SDS011;1209;48.410;9.054;2022-12-07T09:24:30;5.77;;;4.30;;
2396;SDS011;1209;48.410;9.054;2022-12-07T09:26:57;7.60;;;6.03;;
2396;SDS011;1209;48.410;9.054;2022-12-07T09:29:23;7.78;;;4.90;;
2396;SDS011;1209;48.410;9.054;2022-12-07T09:31:49;13.95;;;5.45;;
2396;SDS011;1209;48.410;9.054;2022-12-07T09:34:14;7.57;;;5.00;;
2396;SDS011;1209;48.410;9.054;2022-12-07T09:36:40;6.80;;;4.40;;
2396;SDS011;1209;48.410;9.054;2022-12-07T09:39:05;6.80;;;4.60;;
2396;SDS011;1209;48.410;9.054;2022-12-07T09:41:31;10.80;;;5.73;;
2396;SDS011;1209;48.410;9.054;2022-12-07T09:44:09;4.90;;;4.40;;
2396;SDS011;1209;48.410;9.054;2022-12-07T09:46:39;12.02;;;6.05;;
2396;SDS011;1209;48.410;9.054;2022-12-07T09:49:11;8.43;;;5.13;;
2396;SDS011;1209;48.410;9.054;2022-12-07T09:51:41;7.38;;;4.43;;
2396;SDS011;1209;48.410;9.054;2022-12-07T09:54:08;7.67;;;4.87;;
2396;SDS011;1209;48.410;9.054;2022-12-07T09:56:37;7.72;;;4.85;;
2396;SDS011;1209;48.410;9.054;2022-12-07T09:59:02;5.97;;;5.17;;
2396;SDS011;1209;48.410;9.054;2022-12-07T10:01:30;7.90;;;4.40;;
2396;SDS011;1209;48.410;9.054;2022-12-07T10:06:39;5.88;;;4.20;;
2396;SDS011;1209;48.410;9.054;2022-12-07T10:11:57;6.88;;;4.45;;
2396;SDS011;1209;48.410;9.054;2022-12-07T10:14:35;7.47;;;4.50;;
2396;SDS011;1209;48.410;9.054;2022-12-07T10:19:51;4.80;;;3.33;;
2396;SDS011;1209;48.410;9.054;2022-12-07T10:22:17;5.50;;;4.07;;
2396;SDS011;1209;48.410;9.054;2022-12-07T10:24:43;6.63;;;3.60;;
2396;SDS011;1209;48.410;9.054;2022-12-07T10:27:21;5.93;;;4.18;;
2396;SDS011;1209;48.410;9.054;2022-12-07T10:29:54;6.90;;;3.90;;
2396;SDS011;1209;48.410;9.054;2022-12-07T10:34:44;6.87;;;4.00;;
2396;SDS011;1209;48.410;9.054;2022-12-07T10:42:08;6.18;;;3.60;;
2396;SDS011;1209;48.410;9.054;2022-12-07T10:45:06;4.38;;;3.35;;
2396;SDS011;1209;48.410;9.054;2022-12-07T10:53:14;6.25;;;4.05;;
2396;SDS011;1209;48.410;9.054;2022-12-07T11:04:18;5.57;;;3.92;;
2396;SDS011;1209;48.410;9.054;2022-12-07T11:06:59;3.55;;;3.25;;
2396;SDS011;1209;48.410;9.054;2022-12-07T11:09:50;5.15;;;3.40;;
2396;SDS011;1209;48.410;9.054;2022-12-07T11:26:04;5.53;;;3.67;;
2396;SDS011;1209;48.410;9.054;2022-12-07T11:28:44;5.70;;;3.53;;
2396;SDS011;1209;48.410;9.054;2022-12-07T11:31:28;7.53;;;4.00;;
2396;SDS011;1209;48.410;9.054;2022-12-07T11:34:23;4.95;;;3.92;;
2396;SDS011;1209;48.410;9.054;2022-12-07T11:36:57;5.97;;;3.55;;
2396;SDS011;1209;48.410;9.054;2022-12-07T11:39:26;5.50;;;4.00;;
2396;SDS011;1209;48.410;9.054;2022-12-07T11:42:25;4.45;;;3.55;;
2396;SDS011;1209;48.410;9.054;2022-12-07T11:47:55;4.60;;;3.60;;
2396;SDS011;1209;48.410;9.054;2022-12-07T11:50:58;4.63;;;3.35;;
2396;SDS011;1209;48.410;9.054;2022-12-07T11:56:17;4.03;;;3.10;;
2396;SDS011;1209;48.410;9.054;2022-12-07T11:58:54;5.20;;;3.50;;
2396;SDS011;1209;48.410;9.054;2022-12-07T12:01:31;4.47;;;3.60;;
2396;SDS011;1209;48.410;9.054;2022-12-07T12:06:35;6.25;;;3.55;;
2396;SDS011;1209;48.410;9.054;2022-12-07T12:26:03;4.45;;;4.00;;
2396;SDS011;1209;48.410;9.054;2022-12-07T12:33:48;3.55;;;3.22;;
2396;SDS011;1209;48.410;9.054;2022-12-07T12:38:51;5.97;;;3.70;;
2396;SDS011;1209;48.410;9.054;2022-12-07T12:49:36;4.63;;;3.40;;
2396;SDS011;1209;48.410;9.054;2022-12-07T12:57:34;3.22;;;2.55;;
2396;SDS011;1209;48.410;9.054;2022-12-07T13:00:02;4.05;;;2.70;;
2396;SDS011;1209;48.410;9.054;2022-12-07T13:02:52;4.15;;;2.80;;
2396;SDS011;1209;48.410;9.054;2022-12-07T13:05:26;3.53;;;3.00;;
2396;SDS011;1209;48.410;9.054;2022-12-07T13:07:55;4.80;;;2.90;;
2396;SDS011;1209;48.410;9.054;2022-12-07T13:12:58;3.93;;;2.60;;
2396;SDS011;1209;48.410;9.054;2022-12-07T13:21:01;3.57;;;2.77;;
2396;SDS011;1209;48.410;9.054;2022-12-07T13:28:35;4.75;;;3.05;;
2396;SDS011;1209;48.410;9.054;2022-12-07T13:33:30;4.53;;;2.63;;
2396;SDS011;1209;48.410;9.054;2022-12-07T13:35:55;5.53;;;4.10;;
2396;SDS011;1209;48.410;9.054;2022-12-07T13:38:34;4.90;;;3.63;;
2396;SDS011;1209;48.410;9.054;2022-12-07T13:41:11;5.82;;;3.75;;
2396;SDS011;1209;48.410;9.054;2022-12-07T13:43:42;3.75;;;3.30;;
2396;SDS011;1209;48.410;9.054;2022-12-07T13:46:13;3.15;;;2.67;;
2396;SDS011;1209;48.410;9.054;2022-12-07T13:48:46;13.23;;;2.90;;
2396;SDS011;1209;48.410;9.054;2022-12-07T13:51:17;4.90;;;3.33;;
2396;SDS011;1209;48.410;9.054;2022-12-07T13:54:09;13.35;;;3.22;;
2396;SDS011;1209;48.410;9.054;2022-12-07T13:56:36;3.70;;;3.35;;
2396;SDS011;1209;48.410;9.054;2022-12-07T13:59:04;5.45;;;3.58;;
2396;SDS011;1209;48.410;9.054;2022-12-07T14:01:35;7.53;;;3.45;;
2396;SDS011;1209;48.410;9.054;2022-12-07T14:06:59;7.15;;;4.05;;
2396;SDS011;1209;48.410;9.054;2022-12-07T14:09:27;2.95;;;2.55;;
2396;SDS011;1209;48.410;9.054;2022-12-07T14:11:54;5.60;;;3.10;;
2396;SDS011;1209;48.410;9.054;2022-12-07T14:14:26;6.14;;;3.34;;
2396;SDS011;1209;48.410;9.054;2022-12-07T14:16:55;4.97;;;3.08;;
2396;SDS011;1209;48.410;9.054;2022-12-07T14:19:46;3.88;;;3.10;;
2396;SDS011;1209;48.410;9.054;2022-12-07T14:25:17;6.90;;;3.13;;
2396;SDS011;1209;48.410;9.054;2022-12-07T14:27:51;3.00;;;2.55;;
2396;SDS011;1209;48.410;9.054;2022-12-07T14:30:37;4.85;;;3.00;;
2396;SDS011;1209;48.410;9.054;2022-12-07T14:33:03;8.95;;;3.00;;
2396;SDS011;1209;48.410;9.054;2022-12-07T14:35:36;6.15;;;3.88;;
2396;SDS011;1209;48.410;9.054;2022-12-07T14:40:33;5.75;;;2.90;;
2396;SDS011;1209;48.410;9.054;2022-12-07T14:43:06;5.77;;;3.30;;
2396;SDS011;1209;48.410;9.054;2022-12-07T14:45:46;4.05;;;2.65;;
2396;SDS011;1209;48.410;9.054;2022-12-07T14:48:13;3.58;;;3.20;;
2396;SDS011;1209;48.410;9.054;2022-12-07T14:50:45;3.65;;;3.03;;
2396;SDS011;1209;48.410;9.054;2022-12-07T14:53:17;22.08;;;3.40;;
2396;SDS011;1209;48.410;9.054;2022-12-07T14:55:45;6.25;;;3.25;;
2396;SDS011;1209;48.410;9.054;2022-12-07T14:58:15;4.23;;;3.20;;
2396;SDS011;1209;48.410;9.054;2022-12-07T15:00:47;3.42;;;2.78;;
2396;SDS011;1209;48.410;9.054;2022-12-07T15:03:13;5.10;;;3.60;;
2396;SDS011;1209;48.410;9.054;2022-12-07T15:05:38;5.40;;;3.37;;
2396;SDS011;1209;48.410;9.054;2022-12-07T15:08:05;4.35;;;3.38;;
2396;SDS011;1209;48.410;9.054;2022-12-07T15:10:32;4.13;;;3.70;;
2396;SDS011;1209;48.410;9.054;2022-12-07T15:12:59;4.82;;;3.20;;
2396;SDS011;1209;48.410;9.054;2022-12-07T15:15:44;5.80;;;2.90;;
2396;SDS011;1209;48.410;9.054;2022-12-07T15:18:10;5.20;;;3.07;;
2396;SDS011;1209;48.410;9.054;2022-12-07T15:20:35;6.50;;;3.60;;
2396;SDS011;1209;48.410;9.054;2022-12-07T15:23:03;5.17;;;3.73;;
2396;SDS011;1209;48.410;9.054;2022-12-07T15:25:28;8.13;;;4.25;;
2396;SDS011;1209;48.410;9.054;2022-12-07T15:27:54;6.50;;;4.70;;
2396;SDS011;1209;48.410;9.054;2022-12-07T15:30:21;6.63;;;3.97;;
2396;SDS011;1209;48.410;9.054;2022-12-07T15:32:49;5.50;;;3.30;;
2396;SDS011;1209;48.410;9.054;2022-12-07T15:35:18;11.18;;;4.45;;
2396;SDS011;1209;48.410;9.054;2022-12-07T15:37:44;8.27;;;3.83;;
2396;SDS011;1209;48.410;9.054;2022-12-07T15:40:09;6.90;;;3.40;;
2396;SDS011;1209;48.410;9.054;2022-12-07T15:42:35;7.22;;;4.97;;
2396;SDS011;1209;48.410;9.054;2022-12-07T15:45:03;7.07;;;5.72;;
2396;SDS011;1209;48.410;9.054;2022-12-07T15:47:33;6.28;;;3.45;;
2396;SDS011;1209;48.410;9.054;2022-12-07T15:50:03;9.02;;;4.35;;
2396;SDS011;1209;48.410;9.054;2022-12-07T15:52:31;4.72;;;4.05;;
2396;SDS011;1209;48.410;9.054;2022-12-07T15:54:56;9.57;;;5.90;;
2396;SDS011;1209;48.410;9.054;2022-12-07T15:57:21;8.60;;;4.33;;
2396;SDS011;1209;48.410;9.054;2022-12-07T15:59:48;6.83;;;4.07;;
2396;SDS011;1209;48.410;9.054;2022-12-07T16:02:13;6.30;;;3.60;;
2396;SDS011;1209;48.410;9.054;2022-12-07T16:04:39;7.17;;;5.37;;
2396;SDS011;1209;48.410;9.054;2022-12-07T16:07:04;5.50;;;4.93;;
2396;SDS011;1209;48.410;9.054;2022-12-07T16:09:30;7.37;;;5.03;;
2396;SDS011;1209;48.410;9.054;2022-12-07T16:11:55;4.50;;;4.03;;
2396;SDS011;1209;48.410;9.054;2022-12-07T16:14:21;5.70;;;4.23;;
2396;SDS011;1209;48.410;9.054;2022-12-07T16:16:47;5.93;;;4.50;;
2396;SDS011;1209;48.410;9.054;2022-12-07T16:19:13;5.70;;;4.75;;
2396;SDS011;1209;48.410;9.054;2022-12-07T16:21:39;7.63;;;4.80;;
2396;SDS011;1209;48.410;9.054;2022-12-07T16:24:06;9.13;;;5.10;;
2396;SDS011;1209;48.410;9.054;2022-12-07T16:26:32;5.70;;;4.60;;
2396;SDS011;1209;48.410;9.054;2022-12-07T16:28:57;9.47;;;5.03;;
2396;SDS011;1209;48.410;9.054;2022-12-07T16:31:25;4.80;;;4.20;;
2396;SDS011;1209;48.410;9.054;2022-12-07T16:33:55;5.80;;;5.15;;
2396;SDS011;1209;48.410;9.054;2022-12-07T16:36:22;8.35;;;5.40;;
2396;SDS011;1209;48.410;9.054;2022-12-07T16:38:50;10.00;;;5.60;;
2396;SDS011;1209;48.410;9.054;2022-12-07T16:41:15;4.90;;;4.00;;
2396;SDS011;1209;48.410;9.054;2022-12-07T16:43:41;5.13;;;3.70;;
2396;SDS011;1209;48.410;9.054;2022-12-07T16:46:06;3.03;;;2.70;;
2396;SDS011;1209;48.410;9.054;2022-12-07T16:48:34;6.47;;;3.83;;
2396;SDS011;1209;48.410;9.054;2022-12-07T16:51:07;11.38;;;6.35;;
2396;SDS011;1209;48.410;9.054;2022-12-07T16:53:34;8.07;;;4.70;;
2396;SDS011;1209;48.410;9.054;2022-12-07T16:56:00;7.03;;;5.20;;
2396;SDS011;1209;48.410;9.054;2022-12-07T16:58:30;9.30;;;5.40;;
2396;SDS011;1209;48.410;9.054;2022-12-07T17:00:56;8.23;;;5.22;;
2396;SDS011;1209;48.410;9.054;2022-12-07T17:03:21;10.07;;;5.30;;
2396;SDS011;1209;48.410;9.054;2022-12-07T17:05:47;6.50;;;4.67;;
2396;SDS011;1209;48.410;9.054;2022-12-07T17:08:14;6.90;;;3.67;;
2396;SDS011;1209;48.410;9.054;2022-12-07T17:10:41;6.60;;;3.73;;
2396;SDS011;1209;48.410;9.054;2022-12-07T17:13:09;9.30;;;4.78;;
2396;SDS011;1209;48.410;9.054;2022-12-07T17:16:03;7.13;;;4.35;;
2396;SDS011;1209;48.410;9.054;2022-12-07T17:18:31;4.82;;;3.78;;
2396;SDS011;1209;48.410;9.054;2022-12-07T17:21:02;7.63;;;4.82;;
2396;SDS011;1209;48.410;9.054;2022-12-07T17:23:30;5.43;;;3.90;;
2396;SDS011;1209;48.410;9.054;2022-12-07T17:25:55;5.07;;;3.97;;
2396;SDS011;1209;48.410;9.054;2022-12-07T17:28:21;5.60;;;3.60;;
2396;SDS011;1209;48.410;9.054;2022-12-07T17:30:46;7.87;;;3.60;;
2396;SDS011;1209;48.410;9.054;2022-12-07T17:33:12;6.00;;;4.30;;
2396;SDS011;1209;48.410;9.054;2022-12-07T17:35:37;6.43;;;4.43;;
2396;SDS011;1209;48.410;9.054;2022-12-07T17:38:03;4.60;;;2.87;;
2396;SDS011;1209;48.410;9.054;2022-12-07T17:40:28;4.07;;;2.70;;
2396;SDS011;1209;48.410;9.054;2022-12-07T17:42:54;3.93;;;2.07;;
2396;SDS011;1209;48.410;9.054;2022-12-07T17:45:19;5.80;;;3.00;;
2396;SDS011;1209;48.410;9.054;2022-12-07T17:47:45;2.87;;;2.67;;
2396;SDS011;1209;48.410;9.054;2022-12-07T17:50:10;5.17;;;2.40;;
2396;SDS011;1209;48.410;9.054;2022-12-07T17:52:39;2.40;;;2.20;;
2396;SDS011;1209;48.410;9.054;2022-12-07T17:55:23;3.95;;;2.85;;